Time;durP1;ratioP1;P1;durP2;ratioP2;P2;SDS_P1;SDS_P2;PMS_P1;PMS_P2;Temp;Humidity;BMP_temperature;BMP_pressure;BME280_temperature;BME280_humidity;BME280_pressure;Samples;Min_cycle;Max_cycle;Signal;HPM_P1;HPM_P2
2021/11/12 00:02:12;;;;;;;91.18;50.35;;;;;;;;;;5045190;28;20407;-81
2021/11/12 00:14:48;;;;;;;87.18;50.95;;;;;;;;;;5044540;28;20142;-78
2021/11/12 00:17:15;;;;;;;95.85;50.53;;;;;;;;;;5029445;28;20487;-78
2021/11/12 00:19:41;;;;;;;87.35;47.17;;;;;;;;;;5029782;28;20071;-78
2021/11/12 00:22:07;;;;;;;83.72;47.47;;;;;;;;;;5029542;28;20131;-78
2021/11/12 00:24:33;;;;;;;87.45;50.50;;;;;;;;;;5046044;28;20060;-79
2021/11/12 00:27:01;;;;;;;88.20;50.33;;;;;;;;;;5046213;28;20053;-81
2021/11/12 00:29:28;;;;;;;87.68;50.72;;;;;;;;;;5045249;28;20069;-77
2021/11/12 00:47:27;;;;;;;81.32;48.17;;;;;;;;;;5050074;28;20333;-78
2021/11/12 00:53:39;;;;;;;92.25;50.58;;;;;;;;;;5049099;28;20045;-77
2021/11/12 00:55:27;;;;;;;85.55;52.05;;;;;;;;;;5046671;28;20045;-80
2021/11/12 00:57:54;;;;;;;86.50;51.13;;;;;;;;;;5034139;28;20099;-81
2021/11/12 01:00:20;;;;;;;93.43;55.58;;;;;;;;;;5047668;28;20491;-81
2021/11/12 01:02:46;;;;;;;91.10;54.03;;;;;;;;;;5049600;28;20052;-82
2021/11/12 01:05:13;;;;;;;95.60;52.45;;;;;;;;;;5030311;28;20140;-83
2021/11/12 01:07:39;;;;;;;88.65;51.97;;;;;;;;;;5032092;28;20045;-83
2021/11/12 01:10:06;;;;;;;90.72;54.58;;;;;;;;;;5047860;28;20564;-85
2021/11/12 01:12:32;;;;;;;90.93;53.40;;;;;;;;;;5033346;28;20060;-84
2021/11/12 01:14:58;;;;;;;83.65;52.15;;;;;;;;;;5047891;28;20831;-83
2021/11/12 01:17:24;;;;;;;93.15;52.53;;;;;;;;;;5033906;28;20563;-83
2021/11/12 01:19:51;;;;;;;92.50;52.63;;;;;;;;;;5030796;28;20391;-83
2021/11/12 01:22:17;;;;;;;91.15;55.42;;;;;;;;;;5044834;28;20052;-83
2021/11/12 01:24:45;;;;;;;92.85;53.72;;;;;;;;;;5027377;28;20070;-83
2021/11/12 01:27:11;;;;;;;87.35;52.60;;;;;;;;;;5028958;28;20045;-83
2021/11/12 01:29:38;;;;;;;95.70;52.88;;;;;;;;;;5048556;28;20047;-83
2021/11/12 01:32:21;;;;;;;91.65;52.45;;;;;;;;;;5033133;28;20391;-83
2021/11/12 01:34:48;;;;;;;79.65;50.17;;;;;;;;;;5031755;28;20045;-83
2021/11/12 01:37:16;;;;;;;97.65;51.97;;;;;;;;;;5030589;28;20052;-83
2021/11/12 01:39:43;;;;;;;87.97;51.42;;;;;;;;;;5030721;28;20411;-84
2021/11/12 01:42:09;;;;;;;87.47;51.55;;;;;;;;;;5025431;28;20041;-83
2021/11/12 01:44:40;;;;;;;88.30;54.83;;;;;;;;;;5046090;28;20037;-83
2021/11/12 01:47:15;;;;;;;87.57;52.90;;;;;;;;;;5047964;28;20048;-83
2021/11/12 01:49:45;;;;;;;97.75;56.30;;;;;;;;;;5026218;28;20499;-83
2021/11/12 01:59:53;;;;;;;85.30;51.60;;;;;;;;;;5049616;28;20049;-83
2021/11/12 02:02:19;;;;;;;89.45;51.63;;;;;;;;;;5032439;28;20049;-83
2021/11/12 02:04:46;;;;;;;80.32;50.08;;;;;;;;;;5049480;28;20044;-83
2021/11/12 02:07:12;;;;;;;86.07;51.65;;;;;;;;;;5047687;28;20180;-84
2021/11/12 02:09:38;;;;;;;85.82;50.33;;;;;;;;;;5032678;28;20052;-84
2021/11/12 02:12:23;;;;;;;84.85;50.58;;;;;;;;;;5050207;28;20049;-83
2021/11/12 02:14:50;;;;;;;85.95;50.53;;;;;;;;;;5040546;28;20052;-83
2021/11/12 02:17:22;;;;;;;85.35;50.92;;;;;;;;;;5032148;28;20087;-83
2021/11/12 02:20:07;;;;;;;78.68;48.38;;;;;;;;;;5049290;28;20064;-84
2021/11/12 02:22:34;;;;;;;84.32;49.63;;;;;;;;;;5038708;28;20400;-84
2021/11/12 02:25:12;;;;;;;87.28;53.45;;;;;;;;;;5031164;28;20119;-83
2021/11/12 02:27:51;;;;;;;80.28;49.58;;;;;;;;;;5040788;28;20141;-82
2021/11/12 02:30:26;;;;;;;84.32;50.70;;;;;;;;;;5033401;28;20045;-83
2021/11/12 02:33:00;;;;;;;84.75;50.47;;;;;;;;;;5029814;28;20137;-83
2021/11/12 02:35:26;;;;;;;;;;;;;;;;;;5047378;28;20488;-83
2021/11/12 02:37:52;;;;;;;85.32;51.63;;;;;;;;;;5040870;28;19932;-84
2021/11/12 02:40:18;;;;;;;85.75;49.78;;;;;;;;;;5029335;28;20111;-84
2021/11/12 02:42:44;;;;;;;77.03;48.03;;;;;;;;;;5032431;28;20045;-83
2021/11/12 02:45:10;;;;;;;81.68;47.80;;;;;;;;;;5025998;28;20045;-84
2021/11/12 02:47:36;;;;;;;75.90;46.83;;;;;;;;;;5046831;28;20052;-84
2021/11/12 02:50:03;;;;;;;78.18;47.58;;;;;;;;;;5015224;28;20041;-84
2021/11/12 02:52:29;;;;;;;82.18;49.22;;;;;;;;;;5045863;28;20041;-86
2021/11/12 02:54:55;;;;;;;84.25;48.90;;;;;;;;;;5046979;28;20045;-85
2021/11/12 02:57:25;;;;;;;81.65;50.45;;;;;;;;;;5029795;28;20040;-83
2021/11/12 02:59:51;;;;;;;89.30;51.05;;;;;;;;;;5047017;28;20497;-84
2021/11/12 03:02:18;;;;;;;81.82;49.17;;;;;;;;;;5044618;28;20546;-83
2021/11/12 03:04:44;;;;;;;80.72;49.17;;;;;;;;;;5047344;28;20048;-86
2021/11/12 03:07:11;;;;;;;89.00;49.95;;;;;;;;;;5047997;28;20106;-87
2021/11/12 03:09:37;;;;;;;80.65;47.25;;;;;;;;;;5012927;28;20556;-85
2021/11/12 03:12:04;;;;;;;77.40;46.35;;;;;;;;;;5030453;28;20132;-84
2021/11/12 03:14:30;;;;;;;71.55;46.05;;;;;;;;;;5044306;28;20045;-84
2021/11/12 03:16:57;;;;;;;80.22;46.70;;;;;;;;;;5031601;28;20556;-83
2021/11/12 03:19:26;;;;;;;80.88;48.05;;;;;;;;;;5031898;28;20405;-83
2021/11/12 03:22:02;;;;;;;66.88;42.78;;;;;;;;;;5048109;28;20053;-84
2021/11/12 03:24:41;;;;;;;74.95;47.40;;;;;;;;;;5030437;28;20040;-83
2021/11/12 03:27:16;;;;;;;73.43;45.90;;;;;;;;;;5030971;28;20041;-82
2021/11/12 04:02:28;;;;;;;68.78;44.47;;;;;;;;;;5047992;28;20064;-83
2021/11/12 05:10:02;;;;;;;65.53;39.67;;;;;;;;;;5050172;28;20055;-84
2021/11/12 05:56:08;;;;;;;65.63;41.58;;;;;;;;;;5046202;28;20041;-79
2021/11/12 05:58:34;;;;;;;65.05;40.95;;;;;;;;;;5031833;28;20044;-87
2021/11/12 06:01:00;;;;;;;68.15;41.60;;;;;;;;;;5008928;28;20057;-87
2021/11/12 06:03:27;;;;;;;69.60;41.85;;;;;;;;;;5032766;28;20049;-86
2021/11/12 06:05:53;;;;;;;71.80;43.40;;;;;;;;;;5049247;28;20222;-89
2021/11/12 06:08:19;;;;;;;63.65;41.38;;;;;;;;;;5017282;28;20139;-87
2021/11/12 06:10:45;;;;;;;68.05;41.63;;;;;;;;;;5027451;28;20053;-87
2021/11/12 06:13:11;;;;;;;70.22;41.20;;;;;;;;;;5045958;28;20047;-87
2021/11/12 06:15:39;;;;;;;66.78;42.42;;;;;;;;;;5031935;28;20053;-87
2021/11/12 06:18:06;;;;;;;71.43;43.08;;;;;;;;;;5033619;28;20479;-87
2021/11/12 06:20:32;;;;;;;69.13;42.05;;;;;;;;;;5016682;28;20088;-87
2021/11/12 06:22:58;;;;;;;72.00;43.33;;;;;;;;;;5032368;28;20061;-87
2021/11/12 06:25:24;;;;;;;68.68;43.08;;;;;;;;;;5044736;28;20383;-86
2021/11/12 06:27:52;;;;;;;76.85;44.78;;;;;;;;;;5030842;28;20391;-86
2021/11/12 06:30:18;;;;;;;66.95;43.22;;;;;;;;;;5032218;28;20057;-86
2021/11/12 06:32:44;;;;;;;70.53;42.80;;;;;;;;;;5024388;28;20052;-87
2021/11/12 06:35:13;;;;;;;65.38;43.75;;;;;;;;;;5033797;28;20049;-88
2021/11/12 06:37:39;;;;;;;68.82;43.78;;;;;;;;;;5043552;28;20056;-85
2021/11/12 06:40:05;;;;;;;76.55;45.60;;;;;;;;;;5048625;28;20056;-78
2021/11/12 06:42:37;;;;;;;71.03;43.42;;;;;;;;;;5048620;28;20080;-79
2021/11/12 06:50:43;;;;;;;71.45;46.13;;;;;;;;;;5018591;28;20131;-78
2021/11/12 06:53:10;;;;;;;73.35;45.17;;;;;;;;;;5015160;28;20042;-79
2021/11/12 06:55:37;;;;;;;74.07;46.10;;;;;;;;;;5030851;28;20057;-84
2021/11/12 06:58:03;;;;;;;71.85;46.00;;;;;;;;;;5015482;28;20045;-79
2021/11/12 07:00:29;;;;;;;73.68;44.13;;;;;;;;;;5019231;28;20132;-79
2021/11/12 07:02:55;;;;;;;70.57;44.50;;;;;;;;;;5014543;28;20045;-79
2021/11/12 07:05:21;;;;;;;73.18;44.38;;;;;;;;;;5031909;28;20054;-79
2021/11/12 07:07:48;;;;;;;70.35;45.67;;;;;;;;;;5030916;28;20515;-79
2021/11/12 07:10:14;;;;;;;68.78;44.28;;;;;;;;;;5032848;28;20488;-80
2021/11/12 07:12:40;;;;;;;65.47;42.38;;;;;;;;;;5050870;28;20139;-79
2021/11/12 07:15:07;;;;;;;71.10;45.42;;;;;;;;;;5031872;28;20056;-79
2021/11/12 07:17:33;;;;;;;71.18;45.78;;;;;;;;;;5031182;28;20056;-79
2021/11/12 07:19:59;;;;;;;72.15;46.50;;;;;;;;;;5030518;28;20148;-80
2021/11/12 07:22:25;;;;;;;73.32;44.97;;;;;;;;;;5048045;28;20041;-80
2021/11/12 07:24:51;;;;;;;70.10;44.63;;;;;;;;;;5031050;28;20049;-78
2021/11/12 07:27:17;;;;;;;69.18;45.10;;;;;;;;;;5014839;28;20041;-77
2021/11/12 07:29:45;;;;;;;71.95;42.72;;;;;;;;;;5030650;28;20052;-78
2021/11/12 07:32:13;;;;;;;65.15;43.88;;;;;;;;;;5024351;28;20056;-79
2021/11/12 07:34:40;;;;;;;67.53;43.58;;;;;;;;;;5016960;28;20515;-78
2021/11/12 07:37:15;;;;;;;69.80;42.53;;;;;;;;;;5030816;28;20049;-78
2021/11/12 07:47:39;;;;;;;69.68;39.90;;;;;;;;;;4992944;28;20045;-80
2021/11/12 07:50:07;;;;;;;69.22;42.72;;;;;;;;;;5038341;28;20048;-78
2021/11/12 07:52:35;;;;;;;66.55;38.20;;;;;;;;;;5030251;28;20057;-79
2021/11/12 07:55:02;;;;;;;74.93;42.55;;;;;;;;;;5040151;28;20578;-79
2021/11/12 07:57:28;;;;;;;58.80;37.88;;;;;;;;;;5049547;28;20048;-79
2021/11/12 07:59:56;;;;;;;59.70;36.65;;;;;;;;;;5020320;28;20056;-78
2021/11/12 08:02:22;;;;;;;60.17;36.47;;;;;;;;;;5037321;28;20107;-79
2021/11/12 08:04:50;;;;;;;52.95;34.28;;;;;;;;;;5022162;28;20041;-80
2021/11/12 08:07:16;;;;;;;55.53;35.35;;;;;;;;;;5037967;28;20049;-80
2021/11/12 08:09:51;;;;;;;57.28;34.30;;;;;;;;;;5036906;28;20110;-79
2021/11/12 08:12:24;;;;;;;59.92;35.28;;;;;;;;;;5037902;28;20371;-79
2021/11/12 08:15:11;;;;;;;56.37;35.10;;;;;;;;;;5026483;28;20045;-79
2021/11/12 08:20:19;;;;;;;50.55;32.53;;;;;;;;;;5036704;28;20160;-79
2021/11/12 08:30:26;;;;;;;38.25;26.75;;;;;;;;;;5037129;28;20057;-80
2021/11/12 08:33:11;;;;;;;40.25;27.65;;;;;;;;;;5051879;28;20037;-80
2021/11/12 08:43:31;;;;;;;31.17;20.92;;;;;;;;;;5034034;28;20056;-80
2021/11/12 08:48:42;;;;;;;33.50;22.83;;;;;;;;;;5045349;28;20057;-79
2021/11/12 08:51:17;;;;;;;31.95;21.33;;;;;;;;;;5047884;28;20045;-80
2021/11/12 08:53:45;;;;;;;30.42;21.45;;;;;;;;;;5053207;28;20083;-79
2021/11/12 08:56:13;;;;;;;31.75;21.83;;;;;;;;;;5045061;28;20049;-79
2021/11/12 08:58:40;;;;;;;32.80;21.50;;;;;;;;;;5032675;28;20560;-79
2021/11/12 09:01:06;;;;;;;32.30;20.38;;;;;;;;;;5033795;28;20088;-79
2021/11/12 09:03:32;;;;;;;32.55;20.30;;;;;;;;;;5044743;28;20045;-79
2021/11/12 09:05:58;;;;;;;28.40;20.38;;;;;;;;;;5033673;28;20091;-80
2021/11/12 09:08:25;;;;;;;32.53;20.17;;;;;;;;;;5048958;28;20459;-79
2021/11/12 09:10:51;;;;;;;28.25;18.40;;;;;;;;;;5017914;28;20037;-79
2021/11/12 09:13:20;;;;;;;25.55;19.67;;;;;;;;;;5035056;28;20040;-79
2021/11/12 09:15:55;;;;;;;33.67;20.17;;;;;;;;;;5033928;28;20049;-81
2021/11/12 09:18:23;;;;;;;26.17;19.83;;;;;;;;;;5051371;28;20041;-79
2021/11/12 09:20:50;;;;;;;29.70;20.52;;;;;;;;;;5033950;28;20044;-80
2021/11/12 09:23:17;;;;;;;28.80;19.08;;;;;;;;;;5047956;28;20137;-79
2021/11/12 09:25:43;;;;;;;26.20;18.60;;;;;;;;;;5048437;28;20049;-78
2021/11/12 09:28:10;;;;;;;29.70;17.88;;;;;;;;;;5048156;28;20550;-79
2021/11/12 09:30:36;;;;;;;22.38;17.08;;;;;;;;;;5047839;28;20119;-80
2021/11/12 09:33:03;;;;;;;23.08;17.13;;;;;;;;;;5033858;28;20041;-81
2021/11/12 09:35:29;;;;;;;23.63;17.10;;;;;;;;;;5048261;28;20131;-84
2021/11/12 09:37:55;;;;;;;21.95;16.13;;;;;;;;;;5017944;28;20048;-81
2021/11/12 09:40:21;;;;;;;21.77;16.48;;;;;;;;;;5034960;28;20475;-80
2021/11/12 09:42:47;;;;;;;23.85;16.95;;;;;;;;;;5018106;28;20605;-81
2021/11/12 09:45:14;;;;;;;23.33;16.63;;;;;;;;;;5032116;28;20078;-82
2021/11/12 09:47:41;;;;;;;21.38;16.27;;;;;;;;;;5050751;28;20048;-80
2021/11/12 09:50:09;;;;;;;23.83;16.10;;;;;;;;;;5033243;28;20061;-84
2021/11/12 09:52:35;;;;;;;22.85;16.75;;;;;;;;;;5050400;28;20040;-81
2021/11/12 09:55:02;;;;;;;23.15;16.65;;;;;;;;;;5047629;28;20124;-81
2021/11/12 09:57:30;;;;;;;22.17;15.88;;;;;;;;;;5031283;28;20094;-82
2021/11/12 09:59:58;;;;;;;20.13;15.55;;;;;;;;;;5017485;28;20394;-80
2021/11/12 10:02:27;;;;;;;26.90;16.05;;;;;;;;;;5048700;28;20125;-77
2021/11/12 10:04:54;;;;;;;22.83;15.85;;;;;;;;;;5034183;28;20128;-84
2021/11/12 10:07:21;;;;;;;21.70;15.35;;;;;;;;;;5049129;28;20123;-82
2021/11/12 10:10:00;;;;;;;22.77;15.57;;;;;;;;;;5032533;28;20053;-81
2021/11/12 10:12:33;;;;;;;22.17;16.10;;;;;;;;;;5028207;28;20060;-83
2021/11/12 10:15:07;;;;;;;23.10;15.93;;;;;;;;;;5047512;28;20083;-83
2021/11/12 10:17:33;;;;;;;19.35;13.85;;;;;;;;;;5032010;28;20362;-81
2021/11/12 10:20:01;;;;;;;21.20;15.02;;;;;;;;;;5031867;28;20053;-82
2021/11/12 10:22:33;;;;;;;21.02;14.45;;;;;;;;;;5027689;28;20053;-82
2021/11/12 10:25:02;;;;;;;25.23;14.48;;;;;;;;;;5043298;28;20064;-81
2021/11/12 10:27:32;;;;;;;20.83;13.10;;;;;;;;;;5032368;28;20049;-82
2021/11/12 10:30:01;;;;;;;20.55;14.45;;;;;;;;;;5016347;28;20100;-82
2021/11/12 10:32:32;;;;;;;21.50;14.88;;;;;;;;;;5032300;28;20056;-84
2021/11/12 10:35:06;;;;;;;20.75;14.25;;;;;;;;;;5032073;28;20079;-82
2021/11/12 10:37:33;;;;;;;22.00;13.95;;;;;;;;;;5031726;28;20049;-84
2021/11/12 10:40:04;;;;;;;19.02;13.57;;;;;;;;;;5044669;28;20052;-84
2021/11/12 10:42:35;;;;;;;20.20;14.07;;;;;;;;;;5031226;28;20049;-79
2021/11/12 10:45:04;;;;;;;18.35;13.10;;;;;;;;;;5019003;28;20048;-82
2021/11/12 10:47:31;;;;;;;22.48;14.10;;;;;;;;;;5031507;28;20045;-80
2021/11/12 10:49:57;;;;;;;40.10;34.63;;;;;;;;;;5050486;28;20391;-83
2021/11/12 10:52:24;;;;;;;119.72;106.57;;;;;;;;;;5035636;28;20060;-84
2021/11/12 10:55:12;;;;;;;19.35;13.32;;;;;;;;;;5018037;28;20044;-82
2021/11/12 10:57:41;;;;;;;16.40;12.15;;;;;;;;;;5036812;28;20041;-83
2021/11/12 11:00:31;;;;;;;19.25;13.10;;;;;;;;;;5049689;28;20496;-81
2021/11/12 11:03:02;;;;;;;19.17;11.05;;;;;;;;;;5039407;28;20060;-88
2021/11/12 11:05:33;;;;;;;18.55;12.73;;;;;;;;;;5042576;28;20052;-82
2021/11/12 11:08:01;;;;;;;19.55;12.52;;;;;;;;;;5016143;28;20396;-82
2021/11/12 11:10:30;;;;;;;19.55;13.63;;;;;;;;;;5032169;28;20061;-87
2021/11/12 11:13:16;;;;;;;21.00;13.00;;;;;;;;;;5033180;28;20502;-84
2021/11/12 11:15:50;;;;;;;20.10;12.77;;;;;;;;;;5044268;28;20037;-85
2021/11/12 11:18:30;;;;;;;21.63;14.15;;;;;;;;;;5041010;28;20045;-84
2021/11/12 11:20:58;;;;;;;23.10;14.35;;;;;;;;;;5023512;28;20505;-85
2021/11/12 11:23:25;;;;;;;19.77;14.57;;;;;;;;;;5027317;28;20124;-85
2021/11/12 11:25:54;;;;;;;20.85;14.70;;;;;;;;;;5029423;28;20491;-87
2021/11/12 11:28:20;;;;;;;23.88;15.15;;;;;;;;;;5028734;28;20094;-85
2021/11/12 11:30:47;;;;;;;21.90;15.00;;;;;;;;;;5017129;28;20502;-85
2021/11/12 11:33:13;;;;;;;21.63;15.32;;;;;;;;;;5014193;28;20535;-83
2021/11/12 11:35:40;;;;;;;23.35;16.30;;;;;;;;;;5014196;28;20087;-83
2021/11/12 11:38:06;;;;;;;25.38;16.48;;;;;;;;;;5030297;28;20041;-83
2021/11/12 11:40:36;;;;;;;26.23;17.17;;;;;;;;;;5022116;28;20051;-86
2021/11/12 11:43:05;;;;;;;25.77;17.65;;;;;;;;;;5033613;28;20092;-83
2021/11/12 11:45:31;;;;;;;28.40;17.88;;;;;;;;;;5025382;28;20395;-88
2021/11/12 11:47:57;;;;;;;26.45;18.58;;;;;;;;;;5030760;28;20407;-84
2021/11/12 11:50:32;;;;;;;30.23;19.88;;;;;;;;;;5041026;28;20037;-86
2021/11/12 11:53:17;;;;;;;27.50;17.80;;;;;;;;;;5031837;28;20053;-84
2021/11/12 11:55:43;;;;;;;31.25;18.15;;;;;;;;;;5017261;28;20156;-82
2021/11/12 11:58:29;;;;;;;32.35;20.33;;;;;;;;;;5014106;28;20050;-88
2021/11/12 12:01:13;;;;;;;28.75;19.65;;;;;;;;;;5027491;28;20041;-85
2021/11/12 12:03:40;;;;;;;29.15;19.23;;;;;;;;;;5032347;28;20037;-87
2021/11/12 12:06:07;;;;;;;30.27;21.13;;;;;;;;;;5031830;28;20041;-80
2021/11/12 12:08:34;;;;;;;29.80;21.13;;;;;;;;;;5031715;28;20049;-84
2021/11/12 12:11:36;;;;;;;30.65;21.52;;;;;;;;;;5043348;28;20099;-83
2021/11/12 12:14:23;;;;;;;31.20;20.70;;;;;;;;;;4986120;28;20046;-85
2021/11/12 12:17:03;;;;;;;29.88;20.85;;;;;;;;;;5043736;28;20435;-84
2021/11/12 12:31:06;;;;;;;30.73;20.83;;;;;;;;;;5047619;28;20064;-83
2021/11/12 13:25:00;;;;;;;41.60;24.98;;;;;;;;;;5042825;28;20053;-80
2021/11/12 13:27:28;;;;;;;38.20;26.58;;;;;;;;;;5034783;28;20075;-81
2021/11/12 13:29:55;;;;;;;35.85;25.65;;;;;;;;;;5032583;28;20118;-78
2021/11/12 13:32:21;;;;;;;40.50;27.23;;;;;;;;;;5040979;28;20052;-77
2021/11/12 13:34:48;;;;;;;35.88;25.98;;;;;;;;;;5046922;28;20064;-80
2021/11/12 13:37:23;;;;;;;41.92;26.98;;;;;;;;;;5041321;28;20055;-80
2021/11/12 13:40:04;;;;;;;40.53;27.33;;;;;;;;;;5030978;28;20400;-80
2021/11/12 13:42:38;;;;;;;37.70;25.35;;;;;;;;;;5032632;28;20053;-81
2021/11/12 13:45:13;;;;;;;38.67;25.42;;;;;;;;;;5034920;28;20136;-81
2021/11/12 13:47:39;;;;;;;44.65;27.63;;;;;;;;;;5046124;28;20048;-81
2021/11/12 13:50:06;;;;;;;41.42;28.05;;;;;;;;;;5019213;28;20072;-81
2021/11/12 13:52:42;;;;;;;41.20;27.40;;;;;;;;;;5040788;28;20042;-81
2021/11/12 13:55:11;;;;;;;43.55;27.38;;;;;;;;;;5037396;28;20049;-81
2021/11/12 13:57:38;;;;;;;42.85;28.55;;;;;;;;;;5032381;28;20139;-81
2021/11/12 14:00:09;;;;;;;39.38;28.23;;;;;;;;;;5045157;28;20099;-81
2021/11/12 14:02:54;;;;;;;43.97;30.48;;;;;;;;;;5032924;28;20403;-81
2021/11/12 14:05:20;;;;;;;47.63;31.02;;;;;;;;;;5038088;28;20135;-81
2021/11/12 14:07:46;;;;;;;47.90;30.98;;;;;;;;;;5056737;28;20057;-80
2021/11/12 14:10:15;;;;;;;52.92;33.55;;;;;;;;;;5031602;28;20196;-81
2021/11/12 14:12:54;;;;;;;52.30;33.38;;;;;;;;;;5033150;28;20383;-81
2021/11/12 14:15:29;;;;;;;54.90;35.00;;;;;;;;;;5015812;28;20037;-80
2021/11/12 14:18:17;;;;;;;52.05;33.03;;;;;;;;;;5025374;28;20427;-81
2021/11/12 14:20:53;;;;;;;55.67;34.83;;;;;;;;;;5032585;28;20053;-80
2021/11/12 14:23:22;;;;;;;56.38;34.63;;;;;;;;;;5015069;28;20588;-81
2021/11/12 14:36:58;;;;;;;59.58;36.70;;;;;;;;;;5047748;28;20053;-81
2021/11/12 14:45:02;;;;;;;59.00;36.33;;;;;;;;;;5035379;28;20048;-79
2021/11/12 14:47:35;;;;;;;64.20;39.42;;;;;;;;;;5026669;28;20557;-81
2021/11/12 14:50:11;;;;;;;63.22;38.85;;;;;;;;;;5025927;28;20047;-81
2021/11/12 14:52:37;;;;;;;63.08;37.95;;;;;;;;;;5043447;28;20045;-81
2021/11/12 14:55:07;;;;;;;62.67;39.92;;;;;;;;;;5033104;28;20045;-80
2021/11/12 14:57:39;;;;;;;65.35;40.17;;;;;;;;;;5014856;28;20085;-80
2021/11/12 15:00:11;;;;;;;68.20;40.95;;;;;;;;;;5033779;28;20103;-80
2021/11/12 15:02:40;;;;;;;65.38;39.25;;;;;;;;;;5041058;28;20067;-80
2021/11/12 15:05:06;;;;;;;68.10;40.65;;;;;;;;;;5031451;28;20052;-80
2021/11/12 15:07:53;;;;;;;66.35;39.58;;;;;;;;;;5015345;28;20444;-80
2021/11/12 15:10:26;;;;;;;66.13;39.10;;;;;;;;;;5017242;28;20045;-81
2021/11/12 15:12:52;;;;;;;67.20;41.13;;;;;;;;;;5030915;28;20048;-83
2021/11/12 15:15:20;;;;;;;73.57;42.67;;;;;;;;;;5041515;28;20045;-82
2021/11/12 15:17:49;;;;;;;68.45;41.85;;;;;;;;;;5030972;28;20051;-81
2021/11/12 15:20:16;;;;;;;68.63;41.83;;;;;;;;;;5022990;28;20046;-79
2021/11/12 15:23:00;;;;;;;66.90;40.80;;;;;;;;;;5028382;28;20041;-78
2021/11/12 15:30:25;;;;;;;73.25;44.63;;;;;;;;;;5045430;28;20049;-81
2021/11/12 15:32:55;;;;;;;70.53;41.38;;;;;;;;;;5029269;28;20060;-79
2021/11/12 15:35:27;;;;;;;73.03;42.85;;;;;;;;;;5039394;28;20472;-80
2021/11/12 15:38:07;;;;;;;68.40;41.38;;;;;;;;;;5035930;28;20049;-80
2021/11/12 15:40:39;;;;;;;69.55;41.13;;;;;;;;;;5033412;28;20072;-79
2021/11/12 15:43:14;;;;;;;69.95;42.55;;;;;;;;;;5037983;28;20140;-78
2021/11/12 15:48:25;;;;;;;66.63;42.03;;;;;;;;;;5047490;28;20051;-79
2021/11/12 15:53:25;;;;;;;75.80;44.20;;;;;;;;;;5041099;28;20380;-80
2021/11/12 15:56:14;;;;;;;66.75;42.08;;;;;;;;;;5021193;28;20373;-79
2021/11/12 16:01:56;;;;;;;70.63;41.38;;;;;;;;;;5042084;28;20198;-79
2021/11/12 16:25:18;;;;;;;75.18;44.63;;;;;;;;;;5034799;28;20087;-80
2021/11/12 16:27:49;;;;;;;69.53;44.70;;;;;;;;;;5015849;28;20104;-80
2021/11/12 16:30:19;;;;;;;79.30;45.53;;;;;;;;;;5033181;28;20098;-81
2021/11/12 16:32:53;;;;;;;70.28;43.78;;;;;;;;;;5050960;28;20053;-81
2021/11/12 16:35:21;;;;;;;;;;;;;;;;;;5045148;28;20088;-81
2021/11/12 16:37:50;;;;;;;72.95;42.58;;;;;;;;;;5029924;28;20514;-81
2021/11/12 16:56:43;;;;;;;74.00;43.38;;;;;;;;;;5044976;28;20143;-79
2021/11/12 16:59:19;;;;;;;74.20;42.40;;;;;;;;;;5043209;28;20052;-81
2021/11/12 17:05:09;;;;;;;71.30;42.92;;;;;;;;;;5049174;28;20072;-78
2021/11/12 17:07:14;;;;;;;71.75;45.03;;;;;;;;;;5036633;28;20227;-78
2021/11/12 17:12:47;;;;;;;71.05;44.17;;;;;;;;;;5063924;28;20052;-84
2021/11/12 17:15:22;;;;;;;70.80;43.53;;;;;;;;;;5049620;28;20068;-83
2021/11/12 17:23:57;;;;;;;75.07;44.13;;;;;;;;;;4955635;28;20129;-81
2021/11/12 17:47:59;;;;;;;68.18;41.75;;;;;;;;;;5045121;28;20495;-79
2021/11/12 17:50:42;;;;;;;64.55;40.25;;;;;;;;;;5050945;28;20044;-91
2021/11/12 18:06:51;;;;;;;66.88;37.50;;;;;;;;;;5030718;28;20537;-82
2021/11/12 21:46:26;;;;;;;56.20;34.08;;;;;;;;;;5051233;28;20091;-90
2021/11/12 21:49:01;;;;;;;55.72;34.60;;;;;;;;;;5004946;28;20057;-78
2021/11/12 21:51:29;;;;;;;60.53;33.40;;;;;;;;;;5047973;28;20507;-87
2021/11/12 21:53:56;;;;;;;52.13;33.00;;;;;;;;;;5031877;28;20503;-80
2021/11/12 21:56:22;;;;;;;60.38;35.88;;;;;;;;;;5048250;28;20041;-85
2021/11/12 21:58:49;;;;;;;55.08;34.35;;;;;;;;;;5048437;28;20105;-89
2021/11/12 22:01:16;;;;;;;68.15;36.33;;;;;;;;;;5015748;28;20041;-87
2021/11/12 22:03:43;;;;;;;63.15;35.42;;;;;;;;;;5033425;28;20049;-87
2021/11/12 22:06:09;;;;;;;65.57;37.17;;;;;;;;;;5032651;28;20518;-83
2021/11/12 22:08:36;;;;;;;66.10;37.50;;;;;;;;;;5014814;28;20053;-83
2021/11/12 22:11:03;;;;;;;64.78;36.85;;;;;;;;;;5049253;28;20139;-84
2021/11/12 22:13:30;;;;;;;71.32;38.28;;;;;;;;;;5031650;28;20384;-85
2021/11/12 22:15:57;;;;;;;71.68;40.00;;;;;;;;;;5024781;28;20396;-82
2021/11/12 22:18:23;;;;;;;73.53;39.95;;;;;;;;;;5029175;28;20052;-81
2021/11/12 22:20:50;;;;;;;66.60;38.15;;;;;;;;;;5030824;28;20057;-86
2021/11/12 22:23:17;;;;;;;69.10;37.67;;;;;;;;;;5016654;28;20052;-87
2021/11/12 22:25:47;;;;;;;75.45;40.25;;;;;;;;;;5046735;28;20155;-86
2021/11/12 22:28:13;;;;;;;81.47;42.75;;;;;;;;;;5032937;28;20049;-85
2021/11/12 22:30:39;;;;;;;73.25;37.95;;;;;;;;;;5015874;28;20523;-88
2021/11/12 22:33:06;;;;;;;69.25;37.65;;;;;;;;;;5028197;28;20503;-88
2021/11/12 22:35:33;;;;;;;68.10;38.78;;;;;;;;;;5026022;28;20462;-84
2021/11/12 22:37:59;;;;;;;71.85;39.15;;;;;;;;;;5045500;28;20041;-84
2021/11/12 22:40:26;;;;;;;70.47;38.63;;;;;;;;;;5041491;28;20060;-86
2021/11/12 22:42:52;;;;;;;71.55;37.95;;;;;;;;;;5046214;28;20045;-83
2021/11/12 22:45:18;;;;;;;67.93;39.17;;;;;;;;;;5030891;28;20064;-84
2021/11/12 22:47:45;;;;;;;71.70;37.53;;;;;;;;;;5032024;28;20138;-84
2021/11/12 22:50:11;;;;;;;73.40;39.78;;;;;;;;;;5013226;28;20475;-84
2021/11/12 22:52:37;;;;;;;81.82;40.60;;;;;;;;;;5050376;28;20140;-84
2021/11/12 22:55:04;;;;;;;69.05;38.38;;;;;;;;;;5011368;28;20079;-83
2021/11/12 22:57:31;;;;;;;71.90;38.25;;;;;;;;;;5046837;28;20547;-85
2021/11/12 22:59:57;;;;;;;75.43;40.17;;;;;;;;;;5030948;28;20053;-87
2021/11/12 23:02:24;;;;;;;75.28;39.03;;;;;;;;;;5031598;28;20056;-84
2021/11/12 23:04:50;;;;;;;67.13;38.30;;;;;;;;;;5046109;28;20052;-87
2021/11/12 23:07:16;;;;;;;79.22;40.65;;;;;;;;;;5044525;28;20069;-81
2021/11/12 23:09:44;;;;;;;78.28;40.17;;;;;;;;;;5044356;28;20135;-78
2021/11/12 23:12:11;;;;;;;71.80;38.50;;;;;;;;;;5012714;28;20082;-89
2021/11/12 23:14:37;;;;;;;70.38;38.67;;;;;;;;;;5046237;28;20045;-82
2021/11/12 23:17:04;;;;;;;73.65;39.85;;;;;;;;;;5047205;28;20143;-84
2021/11/12 23:19:30;;;;;;;72.88;41.45;;;;;;;;;;5047995;28;20047;-79
2021/11/12 23:21:56;;;;;;;67.07;37.45;;;;;;;;;;5044485;28;20613;-83
2021/11/12 23:24:22;;;;;;;71.97;38.53;;;;;;;;;;5034912;28;20037;-81
2021/11/12 23:26:49;;;;;;;74.63;39.53;;;;;;;;;;5035089;28;20075;-88
2021/11/12 23:29:21;;;;;;;80.40;41.03;;;;;;;;;;5026177;28;20491;-90
2021/11/12 23:31:52;;;;;;;74.70;39.70;;;;;;;;;;5029396;28;20041;-91
2021/11/12 23:34:18;;;;;;;93.32;41.90;;;;;;;;;;5020287;28;20577;-89
2021/11/12 23:36:44;;;;;;;83.95;40.75;;;;;;;;;;5008650;28;20046;-86
2021/11/12 23:39:34;;;;;;;84.28;40.58;;;;;;;;;;5029963;28;20140;-96
2021/11/12 23:42:00;;;;;;;77.10;41.53;;;;;;;;;;5036162;28;20049;-90
2021/11/12 23:44:28;;;;;;;72.07;40.15;;;;;;;;;;5020662;28;20041;-87
2021/11/12 23:47:00;;;;;;;80.10;41.65;;;;;;;;;;5032592;28;20055;-87
2021/11/12 23:49:26;;;;;;;77.28;39.53;;;;;;;;;;5047531;28;20479;-87
2021/11/12 23:51:52;;;;;;;77.80;41.42;;;;;;;;;;5043654;28;20045;-87
2021/11/12 23:54:19;;;;;;;79.68;40.85;;;;;;;;;;5013253;28;20068;-88
2021/11/12 23:56:45;;;;;;;77.38;41.08;;;;;;;;;;5029626;28;20139;-89
2021/11/12 23:59:12;;;;;;;80.82;39.88;;;;;;;;;;5043096;28;20045;-85
